createdAt,value
2017-09-30T00:00:00.405Z,81.10
2017-09-30T00:02:27.349Z,80.80
2017-09-30T00:04:54.297Z,80.90
2017-09-30T00:07:21.246Z,81.00
2017-09-30T00:09:48.198Z,81.00
2017-09-30T00:12:15.150Z,80.70
2017-09-30T00:14:42.474Z,80.90
2017-09-30T00:17:09.357Z,80.90
2017-09-30T00:19:36.633Z,81.30
2017-09-30T00:22:03.554Z,81.30
2017-09-30T00:24:30.494Z,81.40
2017-09-30T00:26:57.382Z,81.30
2017-09-30T00:29:24.285Z,81.20
2017-09-30T00:31:51.269Z,81.20
2017-09-30T00:34:18.194Z,81.20
2017-09-30T00:36:45.465Z,81.50
2017-09-30T00:39:12.345Z,81.50
2017-09-30T00:41:39.277Z,81.70
2017-09-30T00:44:06.168Z,81.80
2017-09-30T00:46:33.049Z,81.50
2017-09-30T00:48:59.953Z,82.00
2017-09-30T00:51:26.897Z,81.90
2017-09-30T00:53:53.813Z,81.70
2017-09-30T00:56:20.691Z,81.70
2017-09-30T00:58:47.569Z,81.50
2017-09-30T01:01:14.483Z,81.50
2017-09-30T01:03:41.364Z,81.80
2017-09-30T01:06:08.274Z,82.00
2017-09-30T01:08:35.189Z,81.50
2017-09-30T01:11:02.146Z,81.80
2017-09-30T01:13:29.051Z,81.90
2017-09-30T01:15:55.938Z,81.50
2017-09-30T01:18:22.861Z,81.70
2017-09-30T01:20:49.764Z,82.00
2017-09-30T01:23:17.046Z,82.20
2017-09-30T01:25:43.954Z,82.20
2017-09-30T01:28:11.229Z,81.90
2017-09-30T01:30:38.156Z,81.90
2017-09-30T01:33:05.037Z,82.00
2017-09-30T01:35:31.920Z,81.90
2017-09-30T01:37:58.830Z,82.00
2017-09-30T01:40:25.745Z,82.00
2017-09-30T01:42:53.029Z,82.10
2017-09-30T01:45:19.957Z,82.10
2017-09-30T01:47:46.845Z,82.40
2017-09-30T01:50:13.722Z,82.70
2017-09-30T01:52:41.033Z,82.30
2017-09-30T01:55:07.924Z,82.30
2017-09-30T01:57:35.203Z,82.40
2017-09-30T02:00:02.119Z,82.40
2017-09-30T02:02:29.006Z,82.60
2017-09-30T02:04:55.889Z,82.60
2017-09-30T02:07:22.809Z,82.50
2017-09-30T02:09:49.796Z,82.60
2017-09-30T02:12:16.681Z,82.40
2017-09-30T02:14:43.600Z,82.70
2017-09-30T02:17:10.479Z,82.60
2017-09-30T02:19:37.390Z,82.60
2017-09-30T02:22:04.738Z,82.50
2017-09-30T02:24:31.617Z,82.50
2017-09-30T02:26:58.528Z,82.60
2017-09-30T02:29:25.473Z,82.70
2017-09-30T02:31:52.421Z,82.50
2017-09-30T02:34:19.346Z,82.70
2017-09-30T02:36:46.313Z,82.60
2017-09-30T02:39:13.217Z,82.10
2017-09-30T02:41:40.205Z,82.40
2017-09-30T02:44:07.159Z,82.20
2017-09-30T02:46:34.486Z,82.40
2017-09-30T02:49:01.459Z,82.40
2017-09-30T02:51:28.813Z,82.70
2017-09-30T02:53:55.710Z,82.70
2017-09-30T02:56:22.749Z,82.90
2017-09-30T02:58:49.657Z,82.50
2017-09-30T03:01:16.595Z,82.50
2017-09-30T03:03:43.517Z,82.40
2017-09-30T03:06:10.493Z,82.40
2017-09-30T03:08:37.381Z,83.00
2017-09-30T03:11:04.293Z,83.20
2017-09-30T03:13:31.637Z,83.20
2017-09-30T03:15:58.582Z,83.20
2017-09-30T03:18:25.533Z,83.00
2017-09-30T03:20:52.418Z,82.80
2017-09-30T03:23:19.321Z,83.00
2017-09-30T03:25:46.257Z,83.20
2017-09-30T03:28:13.140Z,83.20
2017-09-30T03:30:40.030Z,83.00
2017-09-30T03:33:06.949Z,82.90
2017-09-30T03:35:33.926Z,82.80
2017-09-30T03:38:00.804Z,82.60
2017-09-30T03:40:28.167Z,82.70
2017-09-30T03:42:55.457Z,83.00
2017-09-30T03:45:22.349Z,83.00
2017-09-30T03:47:49.276Z,83.40
2017-09-30T03:50:16.241Z,83.60
2017-09-30T03:52:43.191Z,83.10
2017-09-30T03:55:10.140Z,83.00
2017-09-30T03:57:37.048Z,82.90
2017-09-30T04:00:04.030Z,83.10
2017-09-30T04:02:30.937Z,83.40
2017-09-30T04:04:57.921Z,83.20
2017-09-30T04:07:24.865Z,83.40
2017-09-30T04:09:51.771Z,83.40
2017-09-30T04:12:18.653Z,83.40
2017-09-30T04:14:45.588Z,83.00
2017-09-30T04:17:12.472Z,82.90
2017-09-30T04:19:39.811Z,82.50
2017-09-30T04:22:06.742Z,82.50
2017-09-30T04:24:33.710Z,82.70
2017-09-30T04:27:00.985Z,83.40
2017-09-30T04:29:27.909Z,83.40
2017-09-30T04:31:55.252Z,83.60
2017-09-30T04:34:22.133Z,83.40
2017-09-30T04:36:49.054Z,83.40
2017-09-30T04:39:16.405Z,83.70
2017-09-30T04:41:43.349Z,83.70
2017-09-30T04:44:10.293Z,83.90
2017-09-30T04:46:37.181Z,84.10
2017-09-30T04:49:04.189Z,83.90
2017-09-30T04:51:31.085Z,84.10
2017-09-30T04:53:57.969Z,84.00
2017-09-30T04:56:24.892Z,84.00
2017-09-30T04:58:51.813Z,83.80
2017-09-30T05:01:18.746Z,83.80
2017-09-30T05:03:45.757Z,83.90
2017-09-30T05:06:12.705Z,84.40
2017-09-30T05:08:39.658Z,84.20
2017-09-30T05:11:06.577Z,84.10
2017-09-30T05:13:33.549Z,84.00
2017-09-30T05:16:00.442Z,83.60
2017-09-30T05:18:27.439Z,83.40
2017-09-30T05:20:54.384Z,83.50
2017-09-30T05:23:21.275Z,83.70
2017-09-30T05:25:48.201Z,83.90
2017-09-30T05:28:15.486Z,83.70
2017-09-30T05:30:42.374Z,83.70
2017-09-30T05:33:09.329Z,83.60
2017-09-30T05:35:36.214Z,83.50
2017-09-30T05:38:03.122Z,83.40
2017-09-30T05:40:30.060Z,83.40
2017-09-30T05:42:56.940Z,83.40
2017-09-30T05:45:23.855Z,83.20
2017-09-30T05:47:50.880Z,83.00
2017-09-30T05:50:17.828Z,82.90
2017-09-30T05:52:45.107Z,83.60
2017-09-30T05:55:12.113Z,83.60
2017-09-30T05:57:39.061Z,83.80
2017-09-30T06:00:06.014Z,83.80
2017-09-30T06:02:32.962Z,83.60
2017-09-30T06:04:59.949Z,83.70
2017-09-30T06:07:26.849Z,83.60
2017-09-30T06:09:53.796Z,83.90
2017-09-30T06:12:20.745Z,83.90
2017-09-30T06:14:47.638Z,83.90
2017-09-30T06:17:14.634Z,83.50
2017-09-30T06:19:41.518Z,83.50
2017-09-30T06:22:08.404Z,83.50
2017-09-30T06:24:35.377Z,83.50
2017-09-30T06:27:02.336Z,82.90
2017-09-30T06:29:29.609Z,81.90
2017-09-30T06:31:56.537Z,81.90
2017-09-30T06:34:23.822Z,81.50
2017-09-30T06:36:50.705Z,81.50
2017-09-30T06:39:17.669Z,81.50
2017-09-30T06:41:44.567Z,81.90
2017-09-30T06:44:11.450Z,81.80
2017-09-30T06:46:38.378Z,81.80
2017-09-30T06:49:05.258Z,81.50
2017-09-30T06:51:32.537Z,80.50
2017-09-30T06:53:59.553Z,80.50
2017-09-30T06:56:26.437Z,79.90
2017-09-30T06:58:53.343Z,80.20
2017-09-30T07:01:20.701Z,80.70
2017-09-30T07:03:47.649Z,80.60
2017-09-30T07:06:14.591Z,80.90
2017-09-30T07:08:41.522Z,81.10
2017-09-30T07:11:08.409Z,81.10
2017-09-30T07:13:35.692Z,81.00
2017-09-30T07:16:02.622Z,81.00
2017-09-30T07:18:29.507Z,81.00
2017-09-30T07:20:56.479Z,80.80
2017-09-30T07:23:23.422Z,80.70
2017-09-30T07:25:50.301Z,80.70
2017-09-30T07:28:17.189Z,80.40
2017-09-30T07:30:44.136Z,80.30
2017-09-30T07:33:11.025Z,80.20
2017-09-30T07:35:38.358Z,79.70
2017-09-30T07:38:05.290Z,79.70
2017-09-30T07:40:32.185Z,79.50
2017-09-30T07:42:59.075Z,79.50
2017-09-30T07:45:25.989Z,79.40
2017-09-30T07:47:52.873Z,79.30
2017-09-30T07:50:19.762Z,79.20
2017-09-30T07:52:47.075Z,79.40
2017-09-30T07:55:13.962Z,79.40
2017-09-30T07:57:40.910Z,79.40
2017-09-30T08:00:07.833Z,79.30
2017-09-30T08:02:35.113Z,79.30
2017-09-30T08:05:02.026Z,79.30
2017-09-30T08:07:28.967Z,79.30
2017-09-30T08:09:55.853Z,79.10
2017-09-30T08:12:22.810Z,79.20
2017-09-30T08:14:49.746Z,78.70
2017-09-30T08:17:16.629Z,78.80
2017-09-30T08:19:43.509Z,78.50
2017-09-30T08:22:10.883Z,78.10
2017-09-30T08:24:37.779Z,78.10
2017-09-30T08:27:04.665Z,78.10
2017-09-30T08:29:31.997Z,77.90
2017-09-30T08:31:58.882Z,77.90
2017-09-30T08:34:25.783Z,77.20
2017-09-30T08:36:52.735Z,77.10
2017-09-30T08:39:19.618Z,77.00
2017-09-30T08:41:46.500Z,76.80
2017-09-30T08:44:13.483Z,76.90
2017-09-30T08:46:40.427Z,77.00
2017-09-30T08:49:07.377Z,76.90
2017-09-30T08:51:34.311Z,77.40
2017-09-30T08:54:01.202Z,77.40
2017-09-30T08:56:28.089Z,77.40
2017-09-30T08:58:55.049Z,76.60
2017-09-30T09:01:21.929Z,75.90
2017-09-30T09:03:48.813Z,75.60
2017-09-30T09:06:15.939Z,75.60
2017-09-30T09:08:42.881Z,75.80
2017-09-30T09:11:09.788Z,75.60
2017-09-30T09:13:36.734Z,75.70
2017-09-30T09:16:03.705Z,75.60
2017-09-30T09:18:31.045Z,75.30
2017-09-30T09:20:58.490Z,75.10
2017-09-30T09:23:25.377Z,75.10
2017-09-30T09:25:52.279Z,74.70
2017-09-30T09:28:19.218Z,74.40
2017-09-30T09:30:46.218Z,74.50
2017-09-30T09:33:13.167Z,74.70
2017-09-30T09:35:40.173Z,74.80
2017-09-30T09:38:07.116Z,74.60
2017-09-30T09:40:33.997Z,74.50
2017-09-30T09:43:01.010Z,74.40
2017-09-30T09:45:27.929Z,73.90
2017-09-30T09:47:54.902Z,73.90
2017-09-30T09:50:21.816Z,73.40
2017-09-30T09:52:48.714Z,73.50
2017-09-30T09:55:16.007Z,73.50
2017-09-30T09:57:42.936Z,73.50
2017-09-30T10:00:09.821Z,73.50
2017-09-30T10:02:36.704Z,73.20
2017-09-30T10:05:04.017Z,73.00
2017-09-30T10:07:30.909Z,73.00
2017-09-30T10:09:58.189Z,73.10
2017-09-30T10:12:25.186Z,73.10
2017-09-30T10:14:52.077Z,73.00
2017-09-30T10:17:18.973Z,72.70
2017-09-30T10:19:45.921Z,72.20
2017-09-30T10:22:12.875Z,72.40
2017-09-30T10:24:40.162Z,71.80
2017-09-30T10:27:07.084Z,71.80
2017-09-30T10:29:34.369Z,72.00
2017-09-30T10:32:01.265Z,72.00
2017-09-30T10:34:28.213Z,72.30
2017-09-30T10:36:55.168Z,72.70
2017-09-30T10:39:22.054Z,72.60
2017-09-30T10:41:49.057Z,72.50
2017-09-30T10:44:16.025Z,72.30
2017-09-30T10:46:42.925Z,72.00
2017-09-30T10:49:09.902Z,71.60
2017-09-30T10:51:36.792Z,71.30
2017-09-30T10:54:03.733Z,71.10
2017-09-30T10:56:30.737Z,71.40
2017-09-30T10:58:57.685Z,72.30
2017-09-30T11:01:24.573Z,72.70
2017-09-30T11:03:51.502Z,72.10
2017-09-30T11:06:18.463Z,71.90
2017-09-30T11:08:45.346Z,71.50
2017-09-30T11:11:12.413Z,71.80
2017-09-30T11:13:39.299Z,71.70
2017-09-30T11:16:06.191Z,72.00
2017-09-30T11:18:33.154Z,71.40
2017-09-30T11:21:00.049Z,70.40
2017-09-30T11:23:26.938Z,70.70
2017-09-30T11:25:53.860Z,71.00
2017-09-30T11:28:20.749Z,70.80
2017-09-30T11:30:48.040Z,70.50
2017-09-30T11:33:15.033Z,70.50
2017-09-30T11:35:42.024Z,70.20
2017-09-30T11:38:08.921Z,70.20
2017-09-30T11:40:35.836Z,69.30
2017-09-30T11:43:02.726Z,69.30
2017-09-30T11:45:30.173Z,69.60
2017-09-30T11:47:57.121Z,69.60
2017-09-30T11:50:24.065Z,68.60
2017-09-30T11:52:50.968Z,68.60
2017-09-30T11:55:17.889Z,68.80
2017-09-30T11:57:44.812Z,68.80
2017-09-30T12:00:11.696Z,69.10
2017-09-30T12:02:38.635Z,69.30
2017-09-30T12:05:05.533Z,69.20
2017-09-30T12:07:32.432Z,70.30
2017-09-30T12:09:59.351Z,71.40
2017-09-30T12:12:26.693Z,72.30
2017-09-30T12:14:53.641Z,72.30
2017-09-30T12:17:20.641Z,73.20
2017-09-30T12:19:47.529Z,73.50
2017-09-30T12:22:14.422Z,73.70
2017-09-30T12:24:41.353Z,73.40
2017-09-30T12:27:08.232Z,73.50
2017-09-30T12:29:35.214Z,73.20
2017-09-30T12:32:02.143Z,73.20
2017-09-30T12:34:29.032Z,72.80
2017-09-30T12:36:56.371Z,71.60
2017-09-30T12:39:23.696Z,71.30
2017-09-30T12:41:50.581Z,71.30
2017-09-30T12:44:17.916Z,72.40
2017-09-30T12:46:44.966Z,72.40
2017-09-30T12:49:11.861Z,72.60
2017-09-30T12:51:38.861Z,72.50
2017-09-30T12:54:05.805Z,71.20
2017-09-30T12:56:32.692Z,71.10
2017-09-30T12:58:59.602Z,71.50
2017-09-30T13:01:26.538Z,71.40
2017-09-30T13:03:53.493Z,72.80
2017-09-30T13:06:20.381Z,73.10
2017-09-30T13:08:47.429Z,72.10
2017-09-30T13:11:14.329Z,72.20
2017-09-30T13:13:41.221Z,71.70
2017-09-30T13:16:08.147Z,72.10
2017-09-30T13:18:35.061Z,72.40
2017-09-30T13:21:01.955Z,73.10
2017-09-30T13:23:28.872Z,73.40
2017-09-30T13:25:56.254Z,74.80
2017-09-30T13:28:23.133Z,74.80
2017-09-30T13:30:50.102Z,75.00
2017-09-30T13:33:17.050Z,75.10
2017-09-30T13:35:43.940Z,75.30
2017-09-30T13:38:10.944Z,76.10
2017-09-30T13:40:37.890Z,76.60
2017-09-30T13:43:04.776Z,76.80
2017-09-30T13:45:31.689Z,73.20
2017-09-30T13:47:58.974Z,74.10
2017-09-30T13:50:25.858Z,74.10
2017-09-30T13:52:52.833Z,74.40
2017-09-30T13:55:19.718Z,74.40
2017-09-30T13:57:46.661Z,75.90
2017-09-30T14:00:13.661Z,76.80
2017-09-30T14:02:40.614Z,77.10
2017-09-30T14:05:07.491Z,76.40
2017-09-30T14:07:34.497Z,78.00
2017-09-30T14:10:01.450Z,78.30
2017-09-30T14:12:28.403Z,78.70
2017-09-30T14:14:55.778Z,79.40
2017-09-30T14:17:23.054Z,79.30
2017-09-30T14:19:49.942Z,79.30
2017-09-30T14:22:16.897Z,79.80
2017-09-30T14:24:43.812Z,80.10
2017-09-30T14:27:10.693Z,81.00
2017-09-30T14:29:37.578Z,81.90
2017-09-30T14:32:04.588Z,82.10
2017-09-30T14:34:31.469Z,82.30
2017-09-30T14:36:58.377Z,82.20
2017-09-30T14:39:25.321Z,81.90
2017-09-30T14:41:52.286Z,82.20
2017-09-30T14:44:19.629Z,82.80
2017-09-30T14:46:46.573Z,82.80
2017-09-30T14:49:13.513Z,82.40
2017-09-30T14:51:40.397Z,83.00
2017-09-30T14:54:07.404Z,83.00
2017-09-30T14:56:34.286Z,83.80
2017-09-30T14:59:01.168Z,84.60
2017-09-30T15:01:28.146Z,84.40
2017-09-30T15:03:55.102Z,85.00
2017-09-30T15:06:22.373Z,84.80
2017-09-30T15:08:49.686Z,84.90
2017-09-30T15:11:16.591Z,84.90
2017-09-30T15:13:43.470Z,85.30
2017-09-30T15:16:10.441Z,84.70
2017-09-30T15:18:37.801Z,86.00
2017-09-30T15:21:05.081Z,86.70
2017-09-30T15:23:32.115Z,86.70
2017-09-30T15:25:59.475Z,86.30
2017-09-30T15:28:26.810Z,86.40
2017-09-30T15:30:53.753Z,86.40
2017-09-30T15:33:20.701Z,86.40
2017-09-30T15:35:47.583Z,86.80
2017-09-30T15:38:14.498Z,86.70
2017-09-30T15:40:41.406Z,86.60
2017-09-30T15:43:08.380Z,86.50
2017-09-30T15:45:35.300Z,87.10
2017-09-30T15:48:02.181Z,86.80
2017-09-30T15:50:29.076Z,86.40
2017-09-30T15:52:56.006Z,87.30
2017-09-30T15:55:22.910Z,87.20
2017-09-30T15:57:49.883Z,86.80
2017-09-30T16:00:17.189Z,86.00
2017-09-30T16:02:44.069Z,86.00
2017-09-30T16:05:11.405Z,86.10
2017-09-30T16:07:38.294Z,86.10
2017-09-30T16:10:05.173Z,85.90
2017-09-30T16:12:32.086Z,85.50
2017-09-30T16:14:59.008Z,84.80
2017-09-30T16:17:25.889Z,85.20
2017-09-30T16:19:52.805Z,85.00
2017-09-30T16:22:20.094Z,85.70
2017-09-30T16:24:46.974Z,85.70
2017-09-30T16:27:13.941Z,85.50
2017-09-30T16:29:40.825Z,85.60
2017-09-30T16:32:07.705Z,86.10
2017-09-30T16:34:34.622Z,85.10
2017-09-30T16:37:01.517Z,84.30
2017-09-30T16:39:28.469Z,85.10
2017-09-30T16:41:55.401Z,85.30
2017-09-30T16:44:22.285Z,85.70
2017-09-30T16:46:49.200Z,85.50
2017-09-30T16:49:16.157Z,85.90
2017-09-30T16:51:43.089Z,84.60
2017-09-30T16:54:09.974Z,86.10
2017-09-30T16:56:36.885Z,86.50
2017-09-30T16:59:03.783Z,85.20
2017-09-30T17:01:30.665Z,84.50
2017-09-30T17:03:57.586Z,84.80
2017-09-30T17:06:24.473Z,85.10
2017-09-30T17:08:51.364Z,85.00
2017-09-30T17:11:18.282Z,84.50
2017-09-30T17:13:45.609Z,85.30
2017-09-30T17:16:12.557Z,85.20
2017-09-30T17:18:39.502Z,85.40
2017-09-30T17:21:06.905Z,85.50
2017-09-30T17:23:33.905Z,85.50
2017-09-30T17:26:00.853Z,84.50
2017-09-30T17:28:27.756Z,84.60
2017-09-30T17:30:54.621Z,85.60
2017-09-30T17:33:21.537Z,86.10
2017-09-30T17:35:48.412Z,85.90
2017-09-30T17:38:15.382Z,85.90
2017-09-30T17:40:42.331Z,85.50
2017-09-30T17:43:09.209Z,85.70
2017-09-30T17:45:36.094Z,85.40
2017-09-30T17:48:03.062Z,85.30
2017-09-30T17:50:29.945Z,86.00
2017-09-30T17:52:56.829Z,86.10
2017-09-30T17:55:23.802Z,86.50
2017-09-30T17:57:50.684Z,86.30
2017-09-30T18:00:17.636Z,85.20
2017-09-30T18:02:44.549Z,84.90
2017-09-30T18:05:11.825Z,85.20
2017-09-30T18:07:38.785Z,85.30
2017-09-30T18:10:05.787Z,84.80
2017-09-30T18:12:32.741Z,84.50
2017-09-30T18:14:59.727Z,85.30
2017-09-30T18:17:26.673Z,83.60
2017-09-30T18:19:53.573Z,83.30
2017-09-30T18:22:20.454Z,83.90
2017-09-30T18:24:47.408Z,84.00
2017-09-30T18:27:14.306Z,83.30
2017-09-30T18:29:41.203Z,82.70
2017-09-30T18:32:08.113Z,82.90
2017-09-30T18:34:35.458Z,83.00
2017-09-30T18:37:02.357Z,83.00
2017-09-30T18:39:29.302Z,83.20
2017-09-30T18:41:56.180Z,83.60
2017-09-30T18:44:23.149Z,83.30
2017-09-30T18:46:50.113Z,83.60
2017-09-30T18:49:17.724Z,81.70
2017-09-30T18:51:44.702Z,81.60
2017-09-30T18:54:11.636Z,81.40
2017-09-30T18:56:38.525Z,81.40
2017-09-30T18:59:05.402Z,81.70
2017-09-30T19:01:32.377Z,82.70
2017-09-30T19:03:59.330Z,82.70
2017-09-30T19:06:26.221Z,82.80
2017-09-30T19:08:53.144Z,81.60
2017-09-30T19:11:20.422Z,82.30
2017-09-30T19:13:47.330Z,82.30
2017-09-30T19:16:14.637Z,81.30
2017-09-30T19:18:41.617Z,81.40
2017-09-30T19:21:08.506Z,80.60
2017-09-30T19:23:35.418Z,80.60
2017-09-30T19:26:02.293Z,80.80
2017-09-30T19:28:29.306Z,81.60
2017-09-30T19:30:56.185Z,81.90
2017-09-30T19:33:23.066Z,80.30
2017-09-30T19:35:50.041Z,80.00
2017-09-30T19:38:16.921Z,80.10
2017-09-30T19:40:43.833Z,80.50
2017-09-30T19:43:10.754Z,80.50
2017-09-30T19:45:37.649Z,80.50
2017-09-30T19:48:04.945Z,81.10
2017-09-30T19:50:31.876Z,81.10
2017-09-30T19:52:58.773Z,81.40
2017-09-30T19:55:25.722Z,80.00
2017-09-30T19:57:52.664Z,80.60
2017-09-30T20:00:19.609Z,80.00
2017-09-30T20:02:46.638Z,79.10
2017-09-30T20:05:13.558Z,79.30
2017-09-30T20:07:40.449Z,79.00
2017-09-30T20:10:07.400Z,79.70
2017-09-30T20:12:34.337Z,79.70
2017-09-30T20:15:01.234Z,79.90
2017-09-30T20:17:28.135Z,80.20
2017-09-30T20:19:55.081Z,80.50
2017-09-30T20:22:21.967Z,80.70
2017-09-30T20:24:48.845Z,81.00
2017-09-30T20:27:15.765Z,81.20
2017-09-30T20:29:42.652Z,80.50
2017-09-30T20:32:09.651Z,81.00
2017-09-30T20:34:36.568Z,80.70
2017-09-30T20:37:03.909Z,80.30
2017-09-30T20:39:30.869Z,80.30
2017-09-30T20:41:58.173Z,81.00
2017-09-30T20:44:25.154Z,81.00
2017-09-30T20:46:52.032Z,81.60
2017-09-30T20:49:18.952Z,82.10
2017-09-30T20:51:45.852Z,82.00
2017-09-30T20:54:12.734Z,82.00
2017-09-30T20:56:39.690Z,82.40
2017-09-30T20:59:06.578Z,82.90
2017-09-30T21:01:33.588Z,82.60
2017-09-30T21:04:00.929Z,83.60
2017-09-30T21:06:27.881Z,83.80
2017-09-30T21:08:55.208Z,84.30
2017-09-30T21:11:22.117Z,84.30
2017-09-30T21:13:49.002Z,84.40
2017-09-30T21:16:15.944Z,84.40
2017-09-30T21:18:42.889Z,84.10
2017-09-30T21:21:09.838Z,84.20
2017-09-30T21:23:36.729Z,84.00
2017-09-30T21:26:03.730Z,84.20
2017-09-30T21:28:30.610Z,83.70
2017-09-30T21:30:57.493Z,83.70
2017-09-30T21:33:24.412Z,83.40
2017-09-30T21:35:51.288Z,83.30
2017-09-30T21:38:18.256Z,83.20
2017-09-30T21:40:45.202Z,83.30
2017-09-30T21:43:12.155Z,83.10
2017-09-30T21:45:39.057Z,83.40
2017-09-30T21:48:05.975Z,83.60
2017-09-30T21:50:32.850Z,83.70
2017-09-30T21:52:59.733Z,83.80
2017-09-30T21:55:26.652Z,83.10
2017-09-30T21:57:53.622Z,82.90
2017-09-30T22:00:20.505Z,83.30
2017-09-30T22:02:47.424Z,83.40
2017-09-30T22:05:14.362Z,83.00
2017-09-30T22:07:41.302Z,83.50
2017-09-30T22:10:08.232Z,83.60
2017-09-30T22:12:35.202Z,83.30
2017-09-30T22:15:02.081Z,83.50
2017-09-30T22:17:28.996Z,83.60
2017-09-30T22:19:55.934Z,83.50
2017-09-30T22:22:22.828Z,83.30
2017-09-30T22:24:49.750Z,83.30
2017-09-30T22:27:17.030Z,83.00
2017-09-30T22:29:43.914Z,83.00
2017-09-30T22:32:10.828Z,83.30
2017-09-30T22:34:37.705Z,83.30
2017-09-30T22:37:05.893Z,83.80
2017-09-30T22:39:32.825Z,83.80
2017-09-30T22:41:59.833Z,83.90
2017-09-30T22:44:26.741Z,83.90
2017-09-30T22:46:54.220Z,84.00
2017-09-30T22:49:21.142Z,84.00
2017-09-30T22:51:48.022Z,84.20
2017-09-30T22:54:15.076Z,84.40
2017-09-30T22:56:41.975Z,84.00
2017-09-30T22:59:08.862Z,83.90
2017-09-30T23:01:35.782Z,83.80
2017-09-30T23:04:03.123Z,83.50
2017-09-30T23:06:30.070Z,83.50
2017-09-30T23:08:57.117Z,83.50
2017-09-30T23:11:23.997Z,83.50
2017-09-30T23:13:50.877Z,83.80
2017-09-30T23:16:17.852Z,83.80
2017-09-30T23:18:44.737Z,83.60
2017-09-30T23:21:11.621Z,83.30
2017-09-30T23:23:38.593Z,83.00
2017-09-30T23:26:05.540Z,82.90
2017-09-30T23:28:32.420Z,82.90
2017-09-30T23:30:59.429Z,83.10
2017-09-30T23:33:26.318Z,83.00
2017-09-30T23:35:53.220Z,83.00
2017-09-30T23:38:20.144Z,82.70
2017-09-30T23:40:47.029Z,83.20
2017-09-30T23:43:14.376Z,83.90
2017-09-30T23:45:41.296Z,83.90
2017-09-30T23:48:08.186Z,83.90
2017-09-30T23:50:35.466Z,84.50
2017-09-30T23:53:02.388Z,84.50
2017-09-30T23:55:29.717Z,84.20
2017-09-30T23:57:56.666Z,84.20
